Terminal Aerodrome Forecast
Issued by NWS

Home | Current Version | Previous Version | Text Only | Print | Product List | Glossary On
Versions: 1 2 3 4 5 6 7 8 9 10 11 12 13 14 15 16 17 18 19 20 21 22 23 24 25
000
FTUS41 KOKX 241944 AAA
TAFSWF
TAF AMD
KSWF 241944Z 2420/2524 20012KT P6SM SCT040
     FM250400 20007KT P6SM SCT004
      TEMPO 2506/2508 BKN004
     FM250800 19006KT 5SM BR OVC004
     FM251000 18005KT 1/2SM FG OVC002
     FM251600 17010KT 4SM BR OVC007
     FM252200 19013KT 6SM -SHRA BR BKN007 PROB30 2523/2524 5SM -TSRA
      BKN006CB
      AMD NOT SKED=

USA.gov is the U.S. government's official web portal to all federal, state and local government web resources and services.